sensor_id;sensor_type;location;lat;lon;timestamp;temperature;humidity
4501;DHT22;2263;54.654;9.410;2022-10-04T00:00:58;14.10;78.10
4501;DHT22;2263;54.654;9.410;2022-10-04T00:03:12;14.10;78.00
4501;DHT22;2263;54.654;9.410;2022-10-04T00:05:49;14.10;78.10
4501;DHT22;2263;54.654;9.410;2022-10-04T00:13:51;14.00;78.20
4501;DHT22;2263;54.654;9.410;2022-10-04T00:16:24;14.00;78.20
4501;DHT22;2263;54.654;9.410;2022-10-04T00:19:37;14.00;78.10
4501;DHT22;2263;54.654;9.410;2022-10-04T00:27:35;13.90;77.80
4501;DHT22;2263;54.654;9.410;2022-10-04T00:40:33;13.90;77.90
4501;DHT22;2263;54.654;9.410;2022-10-04T00:43:08;13.80;78.00
4501;DHT22;2263;54.654;9.410;2022-10-04T00:46:03;13.80;78.00
4501;DHT22;2263;54.654;9.410;2022-10-04T00:48:53;13.80;78.70
4501;DHT22;2263;54.654;9.410;2022-10-04T00:51:32;13.80;78.00
4501;DHT22;2263;54.654;9.410;2022-10-04T00:56:51;13.80;78.00
4501;DHT22;2263;54.654;9.410;2022-10-04T01:02:16;13.80;77.90
4501;DHT22;2263;54.654;9.410;2022-10-04T01:05:04;13.70;78.00
4501;DHT22;2263;54.654;9.410;2022-10-04T01:08:25;13.70;78.00
4501;DHT22;2263;54.654;9.410;2022-10-04T01:10:45;13.70;78.20
4501;DHT22;2263;54.654;9.410;2022-10-04T01:13:21;13.70;78.00
4501;DHT22;2263;54.654;9.410;2022-10-04T01:18:29;13.70;78.10
4501;DHT22;2263;54.654;9.410;2022-10-04T01:29:01;13.60;78.10
4501;DHT22;2263;54.654;9.410;2022-10-04T01:31:30;13.70;78.30
4501;DHT22;2263;54.654;9.410;2022-10-04T01:33:59;13.60;78.10
4501;DHT22;2263;54.654;9.410;2022-10-04T01:36:27;13.60;78.10
4501;DHT22;2263;54.654;9.410;2022-10-04T01:38:54;13.60;78.10
4501;DHT22;2263;54.654;9.410;2022-10-04T01:43:59;13.60;78.20
4501;DHT22;2263;54.654;9.410;2022-10-04T01:46:32;13.60;78.20
4501;DHT22;2263;54.654;9.410;2022-10-04T01:49:03;13.60;78.20
4501;DHT22;2263;54.654;9.410;2022-10-04T01:51:41;13.60;78.20
4501;DHT22;2263;54.654;9.410;2022-10-04T01:54:13;13.60;78.30
4501;DHT22;2263;54.654;9.410;2022-10-04T01:56:55;13.60;78.20
4501;DHT22;2263;54.654;9.410;2022-10-04T01:59:38;13.60;78.30
4501;DHT22;2263;54.654;9.410;2022-10-04T02:04:45;13.50;78.20
4501;DHT22;2263;54.654;9.410;2022-10-04T02:07:18;13.50;78.90
4501;DHT22;2263;54.654;9.410;2022-10-04T02:09:46;13.50;78.30
4501;DHT22;2263;54.654;9.410;2022-10-04T02:12:16;13.50;78.30
4501;DHT22;2263;54.654;9.410;2022-10-04T02:14:47;13.50;78.30
4501;DHT22;2263;54.654;9.410;2022-10-04T02:17:22;13.50;78.40
4501;DHT22;2263;54.654;9.410;2022-10-04T02:19:50;13.50;78.40
4501;DHT22;2263;54.654;9.410;2022-10-04T02:22:18;13.50;78.40
4501;DHT22;2263;54.654;9.410;2022-10-04T02:24:47;13.50;78.40
4501;DHT22;2263;54.654;9.410;2022-10-04T02:27:15;13.40;78.30
4501;DHT22;2263;54.654;9.410;2022-10-04T02:29:43;13.40;78.40
4501;DHT22;2263;54.654;9.410;2022-10-04T02:32:10;13.40;78.40
4501;DHT22;2263;54.654;9.410;2022-10-04T02:34:58;13.40;78.50
4501;DHT22;2263;54.654;9.410;2022-10-04T02:37:26;13.40;78.50
4501;DHT22;2263;54.654;9.410;2022-10-04T02:40:03;13.40;78.60
4501;DHT22;2263;54.654;9.410;2022-10-04T02:42:37;13.40;78.60
4501;DHT22;2263;54.654;9.410;2022-10-04T02:45:20;13.40;78.60
4501;DHT22;2263;54.654;9.410;2022-10-04T02:48:02;13.40;78.70
4501;DHT22;2263;54.654;9.410;2022-10-04T02:50:47;13.30;78.60
4501;DHT22;2263;54.654;9.410;2022-10-04T02:53:36;13.30;78.60
4501;DHT22;2263;54.654;9.410;2022-10-04T02:56:09;13.30;78.70
4501;DHT22;2263;54.654;9.410;2022-10-04T02:58:38;13.30;78.70
4501;DHT22;2263;54.654;9.410;2022-10-04T03:01:12;13.30;78.70
4501;DHT22;2263;54.654;9.410;2022-10-04T03:03:44;13.30;78.70
4501;DHT22;2263;54.654;9.410;2022-10-04T03:06:17;13.30;78.80
4501;DHT22;2263;54.654;9.410;2022-10-04T03:08:50;13.30;78.80
4501;DHT22;2263;54.654;9.410;2022-10-04T03:11:21;13.30;78.80
4501;DHT22;2263;54.654;9.410;2022-10-04T03:13:52;13.30;78.90
4501;DHT22;2263;54.654;9.410;2022-10-04T03:16:20;13.30;78.90
4501;DHT22;2263;54.654;9.410;2022-10-04T03:18:49;13.30;78.90
4501;DHT22;2263;54.654;9.410;2022-10-04T03:21:18;13.20;78.80
4501;DHT22;2263;54.654;9.410;2022-10-04T03:23:47;13.30;78.90
4501;DHT22;2263;54.654;9.410;2022-10-04T03:26:38;13.30;79.00
4501;DHT22;2263;54.654;9.410;2022-10-04T03:29:10;13.20;78.90
4501;DHT22;2263;54.654;9.410;2022-10-04T03:31:41;13.20;79.00
4501;DHT22;2263;54.654;9.410;2022-10-04T03:34:20;13.20;79.00
4501;DHT22;2263;54.654;9.410;2022-10-04T03:36:50;13.20;79.00
4501;DHT22;2263;54.654;9.410;2022-10-04T03:41:51;13.20;79.10
4501;DHT22;2263;54.654;9.410;2022-10-04T03:44:19;13.20;79.10
4501;DHT22;2263;54.654;9.410;2022-10-04T03:46:47;13.20;79.10
4501;DHT22;2263;54.654;9.410;2022-10-04T03:49:19;13.20;79.20
4501;DHT22;2263;54.654;9.410;2022-10-04T03:51:49;13.20;79.20
4501;DHT22;2263;54.654;9.410;2022-10-04T03:54:20;13.20;79.30
4501;DHT22;2263;54.654;9.410;2022-10-04T03:56:50;13.20;79.30
4501;DHT22;2263;54.654;9.410;2022-10-04T03:59:22;13.10;79.20
4501;DHT22;2263;54.654;9.410;2022-10-04T04:02:01;13.10;79.20
4501;DHT22;2263;54.654;9.410;2022-10-04T04:07:01;13.10;79.30
4501;DHT22;2263;54.654;9.410;2022-10-04T04:09:47;13.10;79.30
4501;DHT22;2263;54.654;9.410;2022-10-04T04:12:28;13.10;79.30
4501;DHT22;2263;54.654;9.410;2022-10-04T04:15:01;13.10;79.30
4501;DHT22;2263;54.654;9.410;2022-10-04T04:17:36;13.10;79.30
4501;DHT22;2263;54.654;9.410;2022-10-04T04:20:12;13.10;79.30
4501;DHT22;2263;54.654;9.410;2022-10-04T04:22:43;13.10;79.30
4501;DHT22;2263;54.654;9.410;2022-10-04T04:25:15;13.10;79.40
4501;DHT22;2263;54.654;9.410;2022-10-04T04:27:43;13.10;79.40
4501;DHT22;2263;54.654;9.410;2022-10-04T04:30:16;13.10;79.40
4501;DHT22;2263;54.654;9.410;2022-10-04T04:32:55;13.10;79.40
4501;DHT22;2263;54.654;9.410;2022-10-04T04:35:30;13.10;79.50
4501;DHT22;2263;54.654;9.410;2022-10-04T04:38:24;13.00;79.50
4501;DHT22;2263;54.654;9.410;2022-10-04T04:40:52;13.00;79.50
4501;DHT22;2263;54.654;9.410;2022-10-04T04:43:26;13.00;79.50
4501;DHT22;2263;54.654;9.410;2022-10-04T04:45:54;13.00;79.60
4501;DHT22;2263;54.654;9.410;2022-10-04T04:48:48;13.00;79.60
4501;DHT22;2263;54.654;9.410;2022-10-04T04:51:23;13.00;79.70
4501;DHT22;2263;54.654;9.410;2022-10-04T04:53:52;13.00;79.70
4501;DHT22;2263;54.654;9.410;2022-10-04T04:56:22;13.00;79.70
4501;DHT22;2263;54.654;9.410;2022-10-04T04:58:53;13.00;79.70
4501;DHT22;2263;54.654;9.410;2022-10-04T05:01:30;13.00;79.70
4501;DHT22;2263;54.654;9.410;2022-10-04T05:06:46;13.00;79.80
4501;DHT22;2263;54.654;9.410;2022-10-04T05:12:18;13.00;79.90
4501;DHT22;2263;54.654;9.410;2022-10-04T05:14:49;13.00;79.90
4501;DHT22;2263;54.654;9.410;2022-10-04T05:17:21;12.90;79.80
4501;DHT22;2263;54.654;9.410;2022-10-04T05:19:51;12.90;79.90
4501;DHT22;2263;54.654;9.410;2022-10-04T05:22:23;12.90;79.90
4501;DHT22;2263;54.654;9.410;2022-10-04T05:25:35;13.00;80.00
4501;DHT22;2263;54.654;9.410;2022-10-04T05:27:43;12.90;79.80
4501;DHT22;2263;54.654;9.410;2022-10-04T05:30:36;12.90;80.10
4501;DHT22;2263;54.654;9.410;2022-10-04T05:33:10;12.90;80.00
4501;DHT22;2263;54.654;9.410;2022-10-04T05:38:33;12.90;80.00
4501;DHT22;2263;54.654;9.410;2022-10-04T05:41:08;12.90;80.00
4501;DHT22;2263;54.654;9.410;2022-10-04T05:43:37;12.90;80.00
4501;DHT22;2263;54.654;9.410;2022-10-04T05:49:15;12.90;80.10
4501;DHT22;2263;54.654;9.410;2022-10-04T05:51:53;12.80;80.00
4501;DHT22;2263;54.654;9.410;2022-10-04T05:54:24;12.90;80.00
4501;DHT22;2263;54.654;9.410;2022-10-04T06:14:33;12.80;80.30
4501;DHT22;2263;54.654;9.410;2022-10-04T06:21:19;12.80;80.40
4501;DHT22;2263;54.654;9.410;2022-10-04T06:23:17;12.80;80.50
4501;DHT22;2263;54.654;9.410;2022-10-04T06:26:07;12.80;80.40
4501;DHT22;2263;54.654;9.410;2022-10-04T06:28:40;12.80;80.40
4501;DHT22;2263;54.654;9.410;2022-10-04T06:36:50;12.80;80.60
4501;DHT22;2263;54.654;9.410;2022-10-04T06:50:48;12.80;80.60
4501;DHT22;2263;54.654;9.410;2022-10-04T06:59:24;12.80;80.80
4501;DHT22;2263;54.654;9.410;2022-10-04T07:02:19;12.80;80.70
4501;DHT22;2263;54.654;9.410;2022-10-04T07:07:44;12.80;81.10
4501;DHT22;2263;54.654;9.410;2022-10-04T07:15:43;12.80;81.00
4501;DHT22;2263;54.654;9.410;2022-10-04T07:18:17;12.80;81.10
4501;DHT22;2263;54.654;9.410;2022-10-04T07:20:49;12.80;81.30
4501;DHT22;2263;54.654;9.410;2022-10-04T07:23:29;12.80;81.10
4501;DHT22;2263;54.654;9.410;2022-10-04T07:26:01;12.80;81.40
4501;DHT22;2263;54.654;9.410;2022-10-04T07:28:33;12.80;81.20
4501;DHT22;2263;54.654;9.410;2022-10-04T07:31:26;12.90;81.50
4501;DHT22;2263;54.654;9.410;2022-10-04T07:34:10;12.90;81.50
4501;DHT22;2263;54.654;9.410;2022-10-04T07:36:47;12.80;81.50
4501;DHT22;2263;54.654;9.410;2022-10-04T07:39:23;12.90;81.80
4501;DHT22;2263;54.654;9.410;2022-10-04T07:41:54;12.80;82.00
4501;DHT22;2263;54.654;9.410;2022-10-04T07:47:08;12.90;82.60
4501;DHT22;2263;54.654;9.410;2022-10-04T07:49:39;12.90;82.60
4501;DHT22;2263;54.654;9.410;2022-10-04T07:52:34;12.90;82.70
4501;DHT22;2263;54.654;9.410;2022-10-04T07:55:21;12.90;83.10
4501;DHT22;2263;54.654;9.410;2022-10-04T08:14:52;12.90;84.00
4501;DHT22;2263;54.654;9.410;2022-10-04T08:17:29;13.00;85.00
4501;DHT22;2263;54.654;9.410;2022-10-04T08:22:42;13.00;84.80
4501;DHT22;2263;54.654;9.410;2022-10-04T08:34:16;13.00;85.80
4501;DHT22;2263;54.654;9.410;2022-10-04T08:37:22;13.00;86.00
4501;DHT22;2263;54.654;9.410;2022-10-04T08:42:53;13.10;86.00
4501;DHT22;2263;54.654;9.410;2022-10-04T09:15:54;13.30;85.40
4501;DHT22;2263;54.654;9.410;2022-10-04T09:21:35;13.50;86.40
4501;DHT22;2263;54.654;9.410;2022-10-04T09:27:22;13.60;86.40
4501;DHT22;2263;54.654;9.410;2022-10-04T09:30:19;13.70;86.50
4501;DHT22;2263;54.654;9.410;2022-10-04T09:38:32;13.80;87.00
4501;DHT22;2263;54.654;9.410;2022-10-04T09:41:38;13.90;86.60
4501;DHT22;2263;54.654;9.410;2022-10-04T09:47:54;14.00;86.90
4501;DHT22;2263;54.654;9.410;2022-10-04T10:04:54;14.20;86.70
4501;DHT22;2263;54.654;9.410;2022-10-04T10:13:21;14.30;86.40
4501;DHT22;2263;54.654;9.410;2022-10-04T10:20:00;14.40;86.30
4501;DHT22;2263;54.654;9.410;2022-10-04T10:27:48;14.50;86.30
4501;DHT22;2263;54.654;9.410;2022-10-04T10:36:45;14.60;87.00
4501;DHT22;2263;54.654;9.410;2022-10-04T10:48:22;14.70;85.40
4501;DHT22;2263;54.654;9.410;2022-10-04T10:51:16;14.70;85.40
4501;DHT22;2263;54.654;9.410;2022-10-04T11:05:41;14.80;85.50
4501;DHT22;2263;54.654;9.410;2022-10-04T11:11:46;14.80;85.10
4501;DHT22;2263;54.654;9.410;2022-10-04T11:27:21;14.80;84.20
4501;DHT22;2263;54.654;9.410;2022-10-04T11:30:25;14.80;84.10
4501;DHT22;2263;54.654;9.410;2022-10-04T11:32:57;14.90;84.20
4501;DHT22;2263;54.654;9.410;2022-10-04T11:35:40;14.90;84.00
4501;DHT22;2263;54.654;9.410;2022-10-04T11:38:31;15.10;83.70
4501;DHT22;2263;54.654;9.410;2022-10-04T11:57:37;15.30;83.50
4501;DHT22;2263;54.654;9.410;2022-10-04T12:00:18;15.30;83.20
4501;DHT22;2263;54.654;9.410;2022-10-04T12:05:52;15.40;83.20
4501;DHT22;2263;54.654;9.410;2022-10-04T12:13:45;15.50;82.60
4501;DHT22;2263;54.654;9.410;2022-10-04T12:19:08;15.60;82.00
4501;DHT22;2263;54.654;9.410;2022-10-04T12:21:53;15.60;82.00
4501;DHT22;2263;54.654;9.410;2022-10-04T12:33:43;15.60;81.80
4501;DHT22;2263;54.654;9.410;2022-10-04T12:41:59;15.70;82.00
4501;DHT22;2263;54.654;9.410;2022-10-04T12:47:44;15.70;81.90
4501;DHT22;2263;54.654;9.410;2022-10-04T12:55:47;15.70;81.90
4501;DHT22;2263;54.654;9.410;2022-10-04T13:19:40;16.00;81.00
4501;DHT22;2263;54.654;9.410;2022-10-04T13:22:14;16.00;80.30
4501;DHT22;2263;54.654;9.410;2022-10-04T13:30:25;16.00;80.50
4501;DHT22;2263;54.654;9.410;2022-10-04T13:55:18;16.00;80.10
4501;DHT22;2263;54.654;9.410;2022-10-04T14:09:38;15.90;79.80
4501;DHT22;2263;54.654;9.410;2022-10-04T14:12:57;15.90;79.60
4501;DHT22;2263;54.654;9.410;2022-10-04T14:24:01;15.90;79.60
4501;DHT22;2263;54.654;9.410;2022-10-04T14:29:49;15.90;79.20
4501;DHT22;2263;54.654;9.410;2022-10-04T14:35:15;15.90;79.50
4501;DHT22;2263;54.654;9.410;2022-10-04T14:38:11;16.00;79.40
4501;DHT22;2263;54.654;9.410;2022-10-04T14:44:18;15.90;79.50
4501;DHT22;2263;54.654;9.410;2022-10-04T14:52:24;15.90;79.40
4501;DHT22;2263;54.654;9.410;2022-10-04T15:00:26;15.90;78.80
4501;DHT22;2263;54.654;9.410;2022-10-04T15:06:10;15.90;79.00
4501;DHT22;2263;54.654;9.410;2022-10-04T15:08:58;15.90;78.90
4501;DHT22;2263;54.654;9.410;2022-10-04T15:11:49;15.90;78.70
4501;DHT22;2263;54.654;9.410;2022-10-04T15:17:57;15.90;78.50
4501;DHT22;2263;54.654;9.410;2022-10-04T15:20:36;15.90;79.30
4501;DHT22;2263;54.654;9.410;2022-10-04T15:23:37;15.90;79.30
4501;DHT22;2263;54.654;9.410;2022-10-04T15:32:04;15.80;79.20
4501;DHT22;2263;54.654;9.410;2022-10-04T15:45:24;15.80;79.20
4501;DHT22;2263;54.654;9.410;2022-10-04T15:50:39;15.80;79.20
4501;DHT22;2263;54.654;9.410;2022-10-04T16:14:59;15.70;79.40
4501;DHT22;2263;54.654;9.410;2022-10-04T16:17:41;15.70;79.40
4501;DHT22;2263;54.654;9.410;2022-10-04T16:23:21;15.70;79.40
4501;DHT22;2263;54.654;9.410;2022-10-04T16:25:52;15.70;79.50
4501;DHT22;2263;54.654;9.410;2022-10-04T16:31:21;15.70;79.60
4501;DHT22;2263;54.654;9.410;2022-10-04T16:34:07;15.70;79.00
4501;DHT22;2263;54.654;9.410;2022-10-04T16:47:53;16.00;78.70
4501;DHT22;2263;54.654;9.410;2022-10-04T16:51:31;16.10;78.70
4501;DHT22;2263;54.654;9.410;2022-10-04T16:53:48;16.10;78.50
4501;DHT22;2263;54.654;9.410;2022-10-04T16:56:30;16.20;78.70
4501;DHT22;2263;54.654;9.410;2022-10-04T16:59:03;16.20;78.60
4501;DHT22;2263;54.654;9.410;2022-10-04T17:07:17;16.20;78.50
4501;DHT22;2263;54.654;9.410;2022-10-04T17:10:43;16.20;78.30
4501;DHT22;2263;54.654;9.410;2022-10-04T17:16:37;16.20;78.20
4501;DHT22;2263;54.654;9.410;2022-10-04T17:19:12;16.20;78.30
4501;DHT22;2263;54.654;9.410;2022-10-04T17:21:57;16.20;78.10
4501;DHT22;2263;54.654;9.410;2022-10-04T17:30:17;16.30;78.30
4501;DHT22;2263;54.654;9.410;2022-10-04T17:39:00;16.20;78.10
4501;DHT22;2263;54.654;9.410;2022-10-04T17:42:01;16.20;78.10
4501;DHT22;2263;54.654;9.410;2022-10-04T17:50:58;16.20;77.90
4501;DHT22;2263;54.654;9.410;2022-10-04T17:53:51;16.20;78.10
4501;DHT22;2263;54.654;9.410;2022-10-04T17:57:08;16.20;77.50
4501;DHT22;2263;54.654;9.410;2022-10-04T17:59:46;16.20;77.80
4501;DHT22;2263;54.654;9.410;2022-10-04T18:04:58;16.20;78.00
4501;DHT22;2263;54.654;9.410;2022-10-04T18:07:32;16.20;77.60
4501;DHT22;2263;54.654;9.410;2022-10-04T18:10:22;16.20;77.90
4501;DHT22;2263;54.654;9.410;2022-10-04T18:13:19;16.20;77.90
4501;DHT22;2263;54.654;9.410;2022-10-04T18:16:07;16.20;77.10
4501;DHT22;2263;54.654;9.410;2022-10-04T18:18:39;16.20;77.90
4501;DHT22;2263;54.654;9.410;2022-10-04T18:21:22;16.20;77.80
4501;DHT22;2263;54.654;9.410;2022-10-04T18:26:20;16.20;78.00
4501;DHT22;2263;54.654;9.410;2022-10-04T18:28:49;16.20;77.70
4501;DHT22;2263;54.654;9.410;2022-10-04T18:31:25;16.10;77.70
4501;DHT22;2263;54.654;9.410;2022-10-04T18:39:21;16.20;78.20
4501;DHT22;2263;54.654;9.410;2022-10-04T18:42:00;16.20;78.00
4501;DHT22;2263;54.654;9.410;2022-10-04T18:44:48;16.20;77.90
4501;DHT22;2263;54.654;9.410;2022-10-04T18:47:33;16.10;78.00
4501;DHT22;2263;54.654;9.410;2022-10-04T18:50:13;16.20;78.10
4501;DHT22;2263;54.654;9.410;2022-10-04T18:56:02;16.10;78.00
4501;DHT22;2263;54.654;9.410;2022-10-04T18:58:55;16.20;77.80
4501;DHT22;2263;54.654;9.410;2022-10-04T19:20:53;16.10;77.80
4501;DHT22;2263;54.654;9.410;2022-10-04T19:29:19;16.10;78.10
4501;DHT22;2263;54.654;9.410;2022-10-04T19:32:13;16.10;78.00
4501;DHT22;2263;54.654;9.410;2022-10-04T19:37:26;16.10;78.00
4501;DHT22;2263;54.654;9.410;2022-10-04T19:40:20;16.10;78.00
4501;DHT22;2263;54.654;9.410;2022-10-04T19:43:00;16.10;77.80
4501;DHT22;2263;54.654;9.410;2022-10-04T19:48:49;16.00;77.60
4501;DHT22;2263;54.654;9.410;2022-10-04T19:51:37;16.10;77.90
4501;DHT22;2263;54.654;9.410;2022-10-04T19:54:11;16.00;78.00
4501;DHT22;2263;54.654;9.410;2022-10-04T19:56:48;16.00;78.10
4501;DHT22;2263;54.654;9.410;2022-10-04T19:59:16;16.00;77.90
4501;DHT22;2263;54.654;9.410;2022-10-04T20:01:47;16.00;77.90
4501;DHT22;2263;54.654;9.410;2022-10-04T20:04:16;16.00;78.00
4501;DHT22;2263;54.654;9.410;2022-10-04T20:07:24;16.00;78.00
4501;DHT22;2263;54.654;9.410;2022-10-04T20:12:39;16.00;78.00
4501;DHT22;2263;54.654;9.410;2022-10-04T20:17:44;16.00;77.80
4501;DHT22;2263;54.654;9.410;2022-10-04T20:20:14;16.00;77.90
4501;DHT22;2263;54.654;9.410;2022-10-04T20:23:05;16.00;78.00
4501;DHT22;2263;54.654;9.410;2022-10-04T20:31:01;15.90;78.10
4501;DHT22;2263;54.654;9.410;2022-10-04T20:36:09;15.90;77.90
4501;DHT22;2263;54.654;9.410;2022-10-04T20:38:59;15.90;77.80
4501;DHT22;2263;54.654;9.410;2022-10-04T20:44:40;15.90;77.90
4501;DHT22;2263;54.654;9.410;2022-10-04T20:50:00;15.90;77.80
4501;DHT22;2263;54.654;9.410;2022-10-04T20:52:30;15.90;77.90
4501;DHT22;2263;54.654;9.410;2022-10-04T20:54:59;15.90;77.90
4501;DHT22;2263;54.654;9.410;2022-10-04T20:57:30;15.90;77.70
4501;DHT22;2263;54.654;9.410;2022-10-04T21:00:03;15.80;77.70
4501;DHT22;2263;54.654;9.410;2022-10-04T21:02:31;15.80;77.70
4501;DHT22;2263;54.654;9.410;2022-10-04T21:05:13;15.80;77.30
4501;DHT22;2263;54.654;9.410;2022-10-04T21:07:40;15.80;77.70
4501;DHT22;2263;54.654;9.410;2022-10-04T21:10:18;15.80;77.60
4501;DHT22;2263;54.654;9.410;2022-10-04T21:12:46;15.80;77.80
4501;DHT22;2263;54.654;9.410;2022-10-04T21:18:04;15.70;77.60
4501;DHT22;2263;54.654;9.410;2022-10-04T21:20:45;15.70;77.60
4501;DHT22;2263;54.654;9.410;2022-10-04T21:23:30;15.70;77.40
4501;DHT22;2263;54.654;9.410;2022-10-04T21:28:45;15.70;77.30
4501;DHT22;2263;54.654;9.410;2022-10-04T21:31:13;15.70;77.40
4501;DHT22;2263;54.654;9.410;2022-10-04T21:33:40;15.70;77.20
4501;DHT22;2263;54.654;9.410;2022-10-04T21:36:07;15.70;77.20
4501;DHT22;2263;54.654;9.410;2022-10-04T21:38:35;15.70;77.20
4501;DHT22;2263;54.654;9.410;2022-10-04T21:41:03;15.70;77.30
4501;DHT22;2263;54.654;9.410;2022-10-04T21:43:30;15.70;77.40
4501;DHT22;2263;54.654;9.410;2022-10-04T21:45:58;15.70;77.30
4501;DHT22;2263;54.654;9.410;2022-10-04T21:48:25;15.70;77.20
4501;DHT22;2263;54.654;9.410;2022-10-04T21:50:53;15.70;77.20
4501;DHT22;2263;54.654;9.410;2022-10-04T21:53:21;15.60;77.30
4501;DHT22;2263;54.654;9.410;2022-10-04T21:55:48;15.60;77.40
4501;DHT22;2263;54.654;9.410;2022-10-04T21:58:15;15.70;77.40
4501;DHT22;2263;54.654;9.410;2022-10-04T22:00:43;15.70;77.40
4501;DHT22;2263;54.654;9.410;2022-10-04T22:03:10;15.60;77.30
4501;DHT22;2263;54.654;9.410;2022-10-04T22:05:37;15.60;77.40
4501;DHT22;2263;54.654;9.410;2022-10-04T22:08:04;15.60;77.30
4501;DHT22;2263;54.654;9.410;2022-10-04T22:10:31;15.60;77.50
4501;DHT22;2263;54.654;9.410;2022-10-04T22:12:58;15.60;77.40
4501;DHT22;2263;54.654;9.410;2022-10-04T22:15:27;15.60;77.50
4501;DHT22;2263;54.654;9.410;2022-10-04T22:17:54;15.60;77.50
4501;DHT22;2263;54.654;9.410;2022-10-04T22:20:22;15.60;77.50
4501;DHT22;2263;54.654;9.410;2022-10-04T22:22:51;15.60;77.60
4501;DHT22;2263;54.654;9.410;2022-10-04T22:25:20;15.60;77.60
4501;DHT22;2263;54.654;9.410;2022-10-04T22:27:48;15.60;77.70
4501;DHT22;2263;54.654;9.410;2022-10-04T22:33:15;15.60;77.70
4501;DHT22;2263;54.654;9.410;2022-10-04T22:35:46;15.60;77.80
4501;DHT22;2263;54.654;9.410;2022-10-04T22:38:13;15.60;77.80
4501;DHT22;2263;54.654;9.410;2022-10-04T22:40:40;15.60;77.90
4501;DHT22;2263;54.654;9.410;2022-10-04T22:43:12;15.60;77.80
4501;DHT22;2263;54.654;9.410;2022-10-04T22:45:41;15.60;77.90
4501;DHT22;2263;54.654;9.410;2022-10-04T22:48:12;15.60;78.00
4501;DHT22;2263;54.654;9.410;2022-10-04T22:50:41;15.50;77.90
4501;DHT22;2263;54.654;9.410;2022-10-04T22:53:20;15.60;78.10
4501;DHT22;2263;54.654;9.410;2022-10-04T22:55:49;15.60;78.10
4501;DHT22;2263;54.654;9.410;2022-10-04T22:58:17;15.50;78.10
4501;DHT22;2263;54.654;9.410;2022-10-04T23:00:44;15.50;78.00
4501;DHT22;2263;54.654;9.410;2022-10-04T23:05:47;15.50;78.20
4501;DHT22;2263;54.654;9.410;2022-10-04T23:08:14;15.50;78.20
4501;DHT22;2263;54.654;9.410;2022-10-04T23:10:44;15.50;78.20
4501;DHT22;2263;54.654;9.410;2022-10-04T23:13:11;15.50;78.20
4501;DHT22;2263;54.654;9.410;2022-10-04T23:15:38;15.50;78.20
4501;DHT22;2263;54.654;9.410;2022-10-04T23:18:16;15.50;78.30
4501;DHT22;2263;54.654;9.410;2022-10-04T23:20:47;15.50;78.30
4501;DHT22;2263;54.654;9.410;2022-10-04T23:23:14;15.50;78.40
4501;DHT22;2263;54.654;9.410;2022-10-04T23:25:44;15.50;78.40
4501;DHT22;2263;54.654;9.410;2022-10-04T23:28:15;15.50;78.50
4501;DHT22;2263;54.654;9.410;2022-10-04T23:30:44;15.50;78.50
4501;DHT22;2263;54.654;9.410;2022-10-04T23:33:19;15.50;78.60
4501;DHT22;2263;54.654;9.410;2022-10-04T23:35:47;15.50;78.60
4501;DHT22;2263;54.654;9.410;2022-10-04T23:38:18;15.50;78.60
4501;DHT22;2263;54.654;9.410;2022-10-04T23:40:46;15.50;78.60
4501;DHT22;2263;54.654;9.410;2022-10-04T23:43:19;15.50;78.60
4501;DHT22;2263;54.654;9.410;2022-10-04T23:45:47;15.50;78.70
4501;DHT22;2263;54.654;9.410;2022-10-04T23:48:21;15.40;78.70
4501;DHT22;2263;54.654;9.410;2022-10-04T23:50:51;15.40;78.70
4501;DHT22;2263;54.654;9.410;2022-10-04T23:53:25;15.40;78.80
4501;DHT22;2263;54.654;9.410;2022-10-04T23:55:54;15.40;78.80
4501;DHT22;2263;54.654;9.410;2022-10-04T23:58:24;15.40;78.90
